createdAt,value
2022-10-17T00:08:58.105Z,12.45
2022-10-17T00:24:01.369Z,12.26
2022-10-17T00:39:04.534Z,12.24
2022-10-17T00:54:09.968Z,12.19
2022-10-17T01:09:13.368Z,11.84
2022-10-17T01:24:47.457Z,11.84
2022-10-17T01:40:10.821Z,11.72
2022-10-17T01:55:20.923Z,11.51
2022-10-17T02:10:36.320Z,11.46
2022-10-17T02:25:48.601Z,11.75
2022-10-17T02:40:53.288Z,11.65
2022-10-17T02:56:05.384Z,11.32
2022-10-17T03:11:09.045Z,11.50
2022-10-17T03:26:12.161Z,11.56
2022-10-17T03:41:15.594Z,11.59
2022-10-17T03:56:24.859Z,11.33
2022-10-17T04:11:42.562Z,11.10
2022-10-17T04:26:46.284Z,10.99
2022-10-17T04:41:50.097Z,11.04
2022-10-17T04:56:53.961Z,11.15
2022-10-17T05:11:57.997Z,11.11
2022-10-17T05:27:01.787Z,10.94
2022-10-17T05:42:05.115Z,10.92
2022-10-17T05:57:09.416Z,11.06
2022-10-17T06:12:13.511Z,11.23
2022-10-17T06:27:18.191Z,11.46
2022-10-17T06:42:22.110Z,11.89
2022-10-17T06:57:45.961Z,13.14
2022-10-17T07:13:08.739Z,14.15
2022-10-17T07:28:15.344Z,15.23
2022-10-17T07:43:18.807Z,15.54
2022-10-17T07:58:22.598Z,16.68
2022-10-17T08:13:25.948Z,17.33
2022-10-17T08:28:29.690Z,18.98
2022-10-17T08:44:17.546Z,19.21
2022-10-17T08:59:26.969Z,19.95
2022-10-17T09:14:45.081Z,20.99
2022-10-17T09:29:51.340Z,21.91
2022-10-17T09:45:26.387Z,22.66
2022-10-17T10:00:31.034Z,23.21
2022-10-17T10:15:39.619Z,23.33
2022-10-17T10:30:47.919Z,23.78
2022-10-17T10:45:52.320Z,23.93
2022-10-17T11:09:57.803Z,24.93
2022-10-17T11:25:08.664Z,24.98
2022-10-17T11:40:21.922Z,25.09
2022-10-17T11:55:30.123Z,25.69
2022-10-17T12:10:43.146Z,25.53
2022-10-17T12:25:59.634Z,25.74
2022-10-17T12:41:08.331Z,26.02
2022-10-17T12:56:46.190Z,26.34
2022-10-17T13:11:50.825Z,26.11
2022-10-17T13:26:54.637Z,28.94
2022-10-17T13:41:58.665Z,29.80
2022-10-17T13:57:05.039Z,31.19
2022-10-17T14:12:16.984Z,30.76
2022-10-17T14:27:35.541Z,30.12
2022-10-17T14:42:40.768Z,26.31
2022-10-17T14:57:46.263Z,25.03
2022-10-17T15:12:58.898Z,24.20
2022-10-17T15:28:12.195Z,22.96
2022-10-17T15:43:19.678Z,22.09
2022-10-17T15:58:23.193Z,21.49
2022-10-17T16:13:26.216Z,21.01
2022-10-17T16:28:29.885Z,20.67
2022-10-17T16:43:36.707Z,20.37
2022-10-17T16:58:41.116Z,20.19
2022-10-17T17:13:44.540Z,20.04
2022-10-17T17:28:49.883Z,19.89
2022-10-17T17:43:53.810Z,19.78
2022-10-17T17:59:00.303Z,19.72
2022-10-17T18:14:07.364Z,19.66
2022-10-17T18:29:13.509Z,19.56
2022-10-17T18:44:17.745Z,19.51
2022-10-17T18:59:25.030Z,19.38
2022-10-17T19:14:30.701Z,19.22
2022-10-17T19:29:34.696Z,18.99
2022-10-17T19:44:38.312Z,18.78
2022-10-17T19:59:41.323Z,18.57
2022-10-17T20:14:44.635Z,18.37
2022-10-17T20:29:48.044Z,18.30
2022-10-17T20:44:51.174Z,18.22
2022-10-17T20:59:54.197Z,18.13
2022-10-17T21:14:57.934Z,18.14
2022-10-17T21:30:01.267Z,18.27
2022-10-17T21:45:10.605Z,18.28
2022-10-17T22:00:19.488Z,18.16
2022-10-17T22:15:22.817Z,18.08
2022-10-17T22:30:26.086Z,18.02
2022-10-17T22:45:29.184Z,17.94
2022-10-17T23:00:32.119Z,17.83
2022-10-17T23:15:35.504Z,17.68
2022-10-17T23:30:39.463Z,17.48
2022-10-17T23:45:42.689Z,17.28
